CDT,Max TemperatureF,Mean TemperatureF,Min TemperatureF,Max Dew PointF,MeanDew PointF,Min DewpointF,Max Humidity, Mean Humidity, Min Humidity, Max Sea Level PressureIn, Mean Sea Level PressureIn, Min Sea Level PressureIn, Max VisibilityMiles, Mean VisibilityMiles, Min VisibilityMiles, Max Wind SpeedMPH, Mean Wind SpeedMPH, Max Gust SpeedMPH,PrecipitationIn, CloudCover, Events, WindDirDegrees
2012-10-1,69,50,32,50,41,32,100,75,31,29.94,29.88,29.82,10,10,7,15,3,24,0.00,2,,293
2012-10-2,64,48,32,46,36,27,100,75,26,30.00,29.95,29.91,10,8,0,7,1,,0.00,1,Fog,131
2012-10-3,69,50,32,52,40,32,100,78,31,30.00,29.97,29.94,10,7,0,8,1,,0.00,2,Fog,185
2012-10-4,64,50,35,46,36,28,100,69,39,29.98,29.88,29.78,10,9,2,17,5,31,0.00,3,,232
2012-10-5,39,36,33,32,27,25,93,68,56,29.92,29.90,29.89,10,10,4,18,13,31,0.00,8,Snow,264
2012-10-6,37,34,32,32,30,27,100,86,70,30.14,30.06,29.92,10,8,1,17,8,30,0.00,8,Rain-Snow,319
2012-10-7,46,35,24,28,23,18,93,65,32,30.13,30.03,29.93,10,10,10,13,4,21,0.00,2,,246
2012-10-8,51,40,28,43,28,19,87,59,38,29.92,29.78,29.64,10,10,10,15,4,30,0.03,4,Rain,192
2012-10-9,46,40,33,43,36,32,93,88,76,29.76,29.70,29.65,10,9,4,10,6,20,0.16,5,Rain-Snow,244
2012-10-10,41,34,28,32,27,19,100,78,42,29.98,29.90,29.76,10,9,2,17,8,25,0.00,7,Snow,295
2012-10-11,41,36,30,34,31,27,100,89,57,30.27,30.02,29.85,10,7,1,16,4,25,0.10,6,Snow,298
2012-10-12,46,32,19,32,23,18,100,71,34,30.41,30.31,30.15,10,10,10,12,2,17,0.00,1,,212
2012-10-13,44,40,35,43,38,19,100,92,52,30.15,29.86,29.74,10,4,0,10,5,17,0.02,7,Fog-Rain,184
2012-10-14,44,40,37,43,40,36,100,95,87,29.79,29.71,29.62,10,4,2,17,6,24,0.03,8,Rain,11
2012-10-15,50,41,32,36,33,30,100,82,50,29.91,29.86,29.75,10,10,10,14,8,21,0.00,5,,339
2012-10-16,55,44,33,46,41,32,100,81,67,29.85,29.64,29.49,10,10,7,9,3,16,0.01,7,Rain,163
2012-10-17,68,50,33,52,46,34,100,85,46,29.49,29.34,29.24,10,6,0,13,4,22,0.14,5,Fog-Rain,151
2012-10-18,51,46,41,50,45,41,100,92,82,29.43,29.24,29.10,10,8,2,9,3,16,0.55,8,Rain,216
2012-10-19,46,44,41,41,39,37,100,86,71,29.66,29.59,29.46,10,10,7,8,4,,0.00,7,Rain,29
2012-10-20,53,42,30,41,39,30,100,86,54,29.85,29.76,29.66,10,9,2,9,5,,0.00,5,,348
2012-10-21,60,44,28,45,37,27,100,77,48,29.98,29.93,29.86,10,7,0,10,2,,0.00,4,Fog,176
2012-10-22,59,47,35,45,42,36,100,76,55,30.06,30.01,29.96,10,10,5,10,3,16,0.00,2,,41
2012-10-23,55,50,44,55,49,43,100,92,82,30.02,29.91,29.85,10,6,2,12,5,20,0.01,8,Rain-Thunderstorm,126
2012-10-24,62,58,55,63,59,55,100,97,94,29.90,29.83,29.69,10,3,0,13,5,22,0.40,8,Fog-Rain-Thunderstorm,159
2012-10-25,60,46,33,59,43,30,100,94,87,29.92,29.67,29.52,10,7,0,16,6,24,1.68,8,Fog-Rain-Thunderstorm,321
2012-10-26,35,34,32,30,25,19,93,74,56,30.27,30.15,29.95,10,10,10,15,8,24,0.18,8,,267
2012-10-27,35,29,23,27,21,14,100,67,44,30.33,30.28,30.24,10,10,10,10,3,,0.00,5,,270
2012-10-28,42,30,17,27,20,14,100,74,34,30.36,30.33,30.30,10,10,10,7,1,,0.00,1,,203
2012-10-29,44,30,15,30,21,14,100,74,39,30.37,30.32,30.24,10,10,10,7,1,,0.00,0,,16
2012-10-30,35,32,30,30,24,21,93,72,56,30.23,30.07,29.94,10,10,10,23,11,33,0.00,1,,7
2012-10-31,33,30,28,30,26,19,93,81,64,29.94,29.87,29.82,10,8,2,16,10,24,0.00,5,Snow,334